createdAt,value
2023-05-10T05:09:39.476Z,96424.16
2023-05-10T05:10:41.985Z,96423.34
2023-05-10T05:11:45.906Z,96418.25
2023-05-10T05:12:48.444Z,96425.78
2023-05-10T05:13:51.904Z,96420.69
2023-05-10T05:14:54.301Z,96415.63
2023-05-10T05:15:57.634Z,96420.44
2023-05-10T05:17:00.742Z,96422.56
2023-05-10T05:18:04.266Z,96416.94
2023-05-10T05:19:06.845Z,96418.81
2023-05-10T05:20:11.193Z,96417.47
2023-05-10T05:21:18.224Z,96416.38
2023-05-10T05:22:27.967Z,96417.47
2023-05-10T05:23:31.235Z,96419.88
2023-05-10T05:24:39.248Z,96416.66
2023-05-10T05:25:43.085Z,96416.13
2023-05-10T05:26:45.441Z,96413.72
2023-05-10T05:27:49.308Z,96422.00
2023-05-10T05:28:54.910Z,96416.94
2023-05-10T05:29:59.239Z,96417.19
2023-05-10T05:31:01.685Z,96416.94
2023-05-10T05:32:05.446Z,96412.91
2023-05-10T05:33:08.149Z,96412.91
2023-05-10T05:34:11.415Z,96418.81
2023-05-10T05:35:13.992Z,96419.09
2023-05-10T05:36:17.589Z,96426.84
2023-05-10T05:37:22.449Z,96416.69
2023-05-10T05:38:26.445Z,96420.66
2023-05-10T05:39:28.903Z,96417.72
2023-05-10T05:40:33.583Z,96411.56
2023-05-10T05:41:35.987Z,96404.34
2023-05-10T05:42:39.681Z,96402.44
2023-05-10T05:43:42.045Z,96399.78
2023-05-10T05:44:45.451Z,96400.03
2023-05-10T05:45:47.924Z,96389.88
2023-05-10T05:46:51.405Z,96389.59
2023-05-10T05:47:54.689Z,96396.84
2023-05-10T05:48:58.393Z,96396.59
2023-05-10T05:50:00.833Z,96394.44
2023-05-10T05:51:06.548Z,96396.84
2023-05-10T05:52:09.651Z,96396.34
2023-05-10T05:53:12.977Z,96397.13
2023-05-10T05:54:16.429Z,96406.50
2023-05-10T05:55:19.878Z,96409.44
2023-05-10T05:56:25.659Z,96399.78
2023-05-10T05:57:29.136Z,96407.53
2023-05-10T05:58:32.472Z,96405.41
2023-05-10T05:59:35.337Z,96401.13
2023-05-10T06:00:38.705Z,96402.72
2023-05-10T06:01:41.093Z,96406.47
2023-05-10T06:02:44.927Z,96404.31
2023-05-10T06:03:48.193Z,96408.59
2023-05-10T06:04:53.378Z,96408.59
2023-05-10T06:05:55.720Z,96404.88
2023-05-10T06:06:58.997Z,96401.66
2023-05-10T06:08:02.221Z,96405.41
2023-05-10T06:09:05.612Z,96405.41
2023-05-10T06:10:09.314Z,96400.59
2023-05-10T06:11:12.680Z,96404.34
2023-05-10T06:12:16.404Z,96401.13
2023-05-10T06:13:19.921Z,96404.06
2023-05-10T06:14:22.557Z,96405.16
2023-05-10T06:15:27.029Z,96404.34
2023-05-10T06:16:30.328Z,96406.50
2023-05-10T06:17:32.851Z,96404.88
2023-05-10T06:18:36.141Z,96406.78
2023-05-10T06:19:39.711Z,96404.88
2023-05-10T06:20:44.122Z,96403.03
2023-05-10T06:21:46.433Z,96399.28
2023-05-10T06:22:49.750Z,96402.22
2023-05-10T06:23:52.214Z,96402.75
2023-05-10T06:24:55.572Z,96397.41
2023-05-10T06:25:58.503Z,96397.94
2023-05-10T06:27:02.967Z,96390.16
2023-05-10T06:28:07.606Z,96392.59
2023-05-10T06:29:10.065Z,96394.19
2023-05-10T06:30:15.867Z,96390.97
2023-05-10T06:31:19.442Z,96396.84
2023-05-10T06:32:23.005Z,96394.19
2023-05-10T06:33:25.444Z,96402.22
2023-05-10T06:34:28.751Z,96399.00
2023-05-10T06:35:32.447Z,96398.75
2023-05-10T06:36:35.632Z,96395.25
2023-05-10T06:37:38.898Z,96392.84
2023-05-10T06:38:42.390Z,96391.50
2023-05-10T06:39:44.783Z,96396.59
2023-05-10T06:40:48.044Z,96389.34
2023-05-10T06:41:51.017Z,96395.78
2023-05-10T06:42:54.388Z,96394.19
2023-05-10T06:43:59.000Z,96387.75
2023-05-10T06:45:01.360Z,96388.31
2023-05-10T06:46:04.974Z,96389.09
2023-05-10T06:47:07.452Z,96383.47
2023-05-10T06:48:10.839Z,96379.47
2023-05-10T06:49:14.419Z,96386.94
2023-05-10T06:50:16.851Z,96389.88
2023-05-10T06:51:22.322Z,96396.31
2023-05-10T06:52:24.844Z,96384.53
2023-05-10T06:53:28.461Z,96391.78
2023-05-10T06:54:31.732Z,96379.19
2023-05-10T06:55:34.033Z,96383.72
2023-05-10T06:56:37.456Z,96395.22
2023-05-10T06:57:42.311Z,96390.38
2023-05-10T06:58:45.551Z,96394.94
2023-05-10T06:59:50.239Z,96385.28
2023-05-10T07:00:53.831Z,96387.16
2023-05-10T07:02:01.574Z,96383.16
2023-05-10T07:03:05.582Z,96387.19
2023-05-10T07:04:09.377Z,96384.00
2023-05-10T07:05:12.833Z,96385.88
2023-05-10T07:06:29.227Z,96376.22
2023-05-10T07:07:36.211Z,96375.94
2023-05-10T07:08:40.536Z,96379.97
2023-05-10T07:09:43.167Z,96377.00
2023-05-10T07:10:46.475Z,96374.88
2023-05-10T07:11:48.826Z,96371.38
2023-05-10T07:12:52.110Z,96371.91
2023-05-10T07:13:55.564Z,96375.38
2023-05-10T07:15:00.280Z,96379.66
2023-05-10T07:16:03.300Z,96376.94
2023-05-10T07:17:06.678Z,96374.25
2023-05-10T07:18:10.256Z,96374.50
2023-05-10T07:19:12.814Z,96373.16
2023-05-10T07:20:16.183Z,96372.06
2023-05-10T07:21:19.619Z,96370.16
2023-05-10T07:22:21.966Z,96363.41
2023-05-10T07:23:25.355Z,96365.31
2023-05-10T07:24:27.735Z,96370.94
2023-05-10T07:25:31.004Z,96363.97
2023-05-10T07:26:33.515Z,96364.78
2023-05-10T07:27:36.932Z,96365.06
2023-05-10T07:28:40.129Z,96374.69
2023-05-10T07:29:43.511Z,96362.91
2023-05-10T07:30:47.679Z,96367.72
2023-05-10T07:31:51.310Z,96364.47
2023-05-10T07:32:53.719Z,96361.28
2023-05-10T07:33:57.465Z,96362.34
2023-05-10T07:35:00.570Z,96361.28
2023-05-10T07:36:04.006Z,96354.31
2023-05-10T07:37:07.462Z,96357.28
2023-05-10T07:38:12.086Z,96354.09
2023-05-10T07:39:18.718Z,96353.06
2023-05-10T07:40:30.513Z,96344.28
2023-05-10T07:41:35.121Z,96350.72
2023-05-10T07:42:39.311Z,96359.88
2023-05-10T07:43:43.023Z,96350.22
2023-05-10T07:44:46.628Z,96356.34
2023-05-10T07:45:50.854Z,96355.28
2023-05-10T07:46:54.330Z,96352.84
2023-05-10T07:47:56.815Z,96360.06
2023-05-10T07:49:00.152Z,96360.06
2023-05-10T07:50:03.617Z,96358.72
2023-05-10T07:51:17.730Z,96351.50
2023-05-10T07:52:22.682Z,96344.00
2023-05-10T07:53:26.381Z,96353.97
2023-05-10T07:54:30.404Z,96345.41
2023-05-10T07:55:32.958Z,96340.06
2023-05-10T07:56:36.799Z,96345.41
2023-05-10T07:57:40.550Z,96344.34
2023-05-10T07:58:42.980Z,96339.25
2023-05-10T07:59:46.835Z,96354.53
2023-05-10T08:00:51.617Z,96339.25
2023-05-10T08:01:54.032Z,96338.19
2023-05-10T08:02:57.536Z,96331.16
2023-05-10T08:04:00.168Z,96334.66
2023-05-10T08:05:03.723Z,96334.91
2023-05-10T08:06:07.037Z,96344.00
2023-05-10T08:07:10.484Z,96330.94
2023-05-10T08:08:13.968Z,96331.50
2023-05-10T08:09:18.859Z,96325.38
2023-05-10T08:10:21.931Z,96330.97
2023-05-10T08:11:25.897Z,96335.53
2023-05-10T08:12:28.478Z,96320.78
2023-05-10T08:13:32.477Z,96329.38
2023-05-10T08:14:37.568Z,96332.84
2023-05-10T08:15:46.022Z,96333.09
2023-05-10T08:16:50.941Z,96326.16
2023-05-10T08:17:55.196Z,96326.19
2023-05-10T08:18:57.663Z,96327.78
2023-05-10T08:20:01.018Z,96326.72
2023-05-10T08:21:03.464Z,96328.31
2023-05-10T08:22:06.923Z,96323.25
2023-05-10T08:23:09.363Z,96328.34
2023-05-10T08:24:12.816Z,96342.81
2023-05-10T08:25:16.495Z,96324.91
2023-05-10T08:26:19.151Z,96323.84
2023-05-10T08:27:22.942Z,96316.88
2023-05-10T08:28:25.557Z,96334.25
2023-05-10T08:29:32.752Z,96321.94
2023-05-10T08:30:57.845Z,96326.22
2023-05-10T08:32:21.283Z,96335.34
2023-05-10T08:33:28.675Z,96329.19
2023-05-10T08:34:32.262Z,96329.19
2023-05-10T08:35:54.406Z,96323.31
2023-05-10T08:36:57.805Z,96335.63
2023-05-10T08:38:01.146Z,96324.66
2023-05-10T08:39:05.723Z,96323.56
2023-05-10T08:40:13.646Z,96325.44
2023-05-10T08:41:38.064Z,96325.72
2023-05-10T08:42:44.648Z,96319.84
2023-05-10T08:44:07.370Z,96320.63
2023-05-10T08:45:11.759Z,96328.38
2023-05-10T08:46:18.784Z,96317.69
2023-05-10T08:47:38.975Z,96331.59
2023-05-10T08:48:43.630Z,96328.38
2023-05-10T08:50:05.477Z,96321.38
2023-05-10T08:51:10.049Z,96326.19
2023-05-10T08:52:15.335Z,96318.72
2023-05-10T08:53:38.706Z,96319.78
2023-05-10T08:54:42.589Z,96313.63
2023-05-10T08:56:05.797Z,96323.00
2023-05-10T08:57:11.761Z,96314.44
2023-05-10T08:58:15.769Z,96319.00
2023-05-10T08:59:40.415Z,96321.66
2023-05-10T09:00:44.263Z,96328.59
2023-05-10T09:01:50.389Z,96327.53
2023-05-10T09:03:13.463Z,96323.00
2023-05-10T09:04:15.808Z,96333.16
2023-05-10T09:05:19.801Z,96327.31
2023-05-10T09:06:24.434Z,96349.75
2023-05-10T09:07:27.093Z,96331.84
2023-05-10T09:08:32.135Z,96331.59
2023-05-10T09:09:35.749Z,96334.53
2023-05-10T09:10:40.755Z,96338.03
2023-05-10T09:11:43.318Z,96328.09
2023-05-10T09:12:47.474Z,96332.13
2023-05-10T09:13:52.650Z,96328.63
2023-05-10T09:14:57.902Z,96338.00
2023-05-10T09:16:09.879Z,96329.72
2023-05-10T09:17:25.854Z,96338.03
2023-05-10T09:18:29.873Z,96330.28
2023-05-10T09:19:33.369Z,96331.59
2023-05-10T09:20:36.650Z,96337.22
2023-05-10T09:21:40.341Z,96338.03
2023-05-10T09:22:43.826Z,96334.28
2023-05-10T09:23:48.700Z,96331.88
2023-05-10T09:25:06.936Z,96328.38
2023-05-10T09:26:10.245Z,96331.63
2023-05-10T09:27:12.611Z,96341.78
2023-05-10T09:28:16.191Z,96336.13
2023-05-10T09:29:18.602Z,96323.56
2023-05-10T09:30:27.489Z,96336.41
2023-05-10T09:31:47.503Z,96327.84
2023-05-10T09:32:51.363Z,96325.16
2023-05-10T09:33:56.146Z,96331.31
2023-05-10T09:34:58.515Z,96336.44
2023-05-10T09:36:09.981Z,96332.94
2023-05-10T09:37:13.839Z,96337.50
2023-05-10T09:38:17.408Z,96328.38
2023-05-10T09:39:19.904Z,96336.97
2023-05-10T09:40:24.664Z,96324.13
2023-05-10T09:41:27.163Z,96327.03
2023-05-10T09:42:30.489Z,96325.72
2023-05-10T09:43:40.188Z,96319.31
2023-05-10T09:44:44.534Z,96323.03
2023-05-10T09:45:50.848Z,96329.47
2023-05-10T09:46:53.920Z,96322.22
2023-05-10T09:47:57.802Z,96324.13
2023-05-10T09:49:01.537Z,96319.84
2023-05-10T09:50:05.641Z,96319.56
2023-05-10T09:51:09.249Z,96325.19
2023-05-10T09:52:12.632Z,96321.19
2023-05-10T09:53:18.060Z,96316.63
2023-05-10T09:54:20.566Z,96310.75
2023-05-10T09:55:25.672Z,96315.84
2023-05-10T09:56:34.995Z,96316.63
2023-05-10T09:57:38.682Z,96321.97
2023-05-10T09:58:41.515Z,96316.09
2023-05-10T09:59:45.507Z,96319.84
2023-05-10T10:00:52.353Z,96302.72
2023-05-10T10:01:59.494Z,96305.94
2023-05-10T10:03:02.434Z,96316.63
2023-05-10T10:04:08.416Z,96316.63
2023-05-10T10:05:12.805Z,96318.75
2023-05-10T10:06:29.440Z,96305.91
2023-05-10T10:07:34.501Z,96314.47
2023-05-10T10:08:37.926Z,96311.00
2023-05-10T10:09:41.142Z,96311.28
2023-05-10T10:10:47.183Z,96310.19
2023-05-10T10:11:50.449Z,96309.13
2023-05-10T10:12:54.285Z,96309.63
2023-05-10T10:13:56.969Z,96305.63
2023-05-10T10:15:02.312Z,96314.16
2023-05-10T10:16:05.289Z,96307.22
2023-05-10T10:17:09.813Z,96306.97
2023-05-10T10:18:15.420Z,96308.84
2023-05-10T10:19:20.900Z,96306.69
2023-05-10T10:20:26.198Z,96304.81
2023-05-10T10:21:29.620Z,96310.16
2023-05-10T10:22:33.108Z,96302.41
2023-05-10T10:23:36.513Z,96308.03
2023-05-10T10:24:41.047Z,96302.13
2023-05-10T10:25:45.480Z,96300.53
2023-05-10T10:26:49.596Z,96300.53
2023-05-10T10:28:10.680Z,96310.94
2023-05-10T10:29:23.868Z,96305.34
2023-05-10T10:30:33.780Z,96299.75
2023-05-10T10:31:40.429Z,96313.91
2023-05-10T10:33:10.107Z,96304.28
2023-05-10T10:34:28.617Z,96301.59
2023-05-10T10:35:32.599Z,96289.31
2023-05-10T10:36:41.967Z,96301.59
2023-05-10T10:37:50.068Z,96292.50
2023-05-10T10:39:03.969Z,96297.84
2023-05-10T10:40:26.887Z,96287.69
2023-05-10T10:41:32.116Z,96286.63
2023-05-10T10:42:48.215Z,96284.50
2023-05-10T10:43:51.516Z,96290.38
2023-05-10T10:45:15.106Z,96283.97
2023-05-10T10:46:21.869Z,96290.13
2023-05-10T10:47:26.240Z,96282.91
2023-05-10T10:48:29.716Z,96287.44
2023-05-10T10:49:39.484Z,96281.59
2023-05-10T10:50:47.794Z,96284.56
2023-05-10T10:52:22.115Z,96286.38
2023-05-10T10:53:29.033Z,96286.13
2023-05-10T10:54:33.727Z,96286.09
2023-05-10T10:55:38.151Z,96282.66
2023-05-10T10:56:40.612Z,96281.28
2023-05-10T10:57:49.700Z,96286.66
2023-05-10T10:58:54.286Z,96282.63
2023-05-10T11:00:22.205Z,96278.34
2023-05-10T11:01:36.852Z,96279.69
2023-05-10T11:02:47.101Z,96273.28
2023-05-10T11:04:22.336Z,96278.34
2023-05-10T11:05:36.077Z,96281.28
2023-05-10T11:06:41.845Z,96282.38
2023-05-10T11:07:54.041Z,96280.75
2023-05-10T11:08:57.540Z,96278.34
2023-05-10T11:10:05.927Z,96275.41
2023-05-10T11:11:10.251Z,96272.47
2023-05-10T11:12:12.992Z,96276.72
2023-05-10T11:13:16.330Z,96281.28
2023-05-10T11:14:23.771Z,96277.03
2023-05-10T11:15:31.214Z,96272.75
2023-05-10T11:16:44.673Z,96276.47
2023-05-10T11:17:53.131Z,96266.88
2023-05-10T11:19:01.231Z,96267.94
2023-05-10T11:20:11.182Z,96271.13
2023-05-10T11:21:17.799Z,96274.06
2023-05-10T11:22:21.179Z,96266.03
2023-05-10T11:23:24.750Z,96263.66
2023-05-10T11:24:30.082Z,96268.19
2023-05-10T11:25:32.447Z,96266.84
2023-05-10T11:26:38.260Z,96260.72
2023-05-10T11:27:43.832Z,96257.75
2023-05-10T11:28:49.449Z,96270.03
2023-05-10T11:29:54.146Z,96260.44
2023-05-10T11:30:58.014Z,96264.97
2023-05-10T11:32:01.919Z,96260.69
2023-05-10T11:33:04.806Z,96264.16
2023-05-10T11:34:08.340Z,96267.38
2023-05-10T11:35:11.897Z,96263.63
2023-05-10T11:36:18.315Z,96263.09
2023-05-10T11:37:21.676Z,96270.59
2023-05-10T11:38:25.093Z,96263.63
2023-05-10T11:39:30.343Z,96255.63
2023-05-10T11:40:32.722Z,96255.63
2023-05-10T11:41:36.535Z,96265.78
2023-05-10T11:42:38.948Z,96284.72
2023-05-10T11:43:42.627Z,96275.13
2023-05-10T11:44:49.866Z,96264.16
2023-05-10T11:45:52.285Z,96255.88
2023-05-10T11:46:55.701Z,96251.59
2023-05-10T11:47:59.246Z,96256.13
2023-05-10T11:49:05.766Z,96265.47
2023-05-10T11:50:09.680Z,96255.59
2023-05-10T11:51:13.405Z,96258.53
2023-05-10T11:52:18.067Z,96262.78
2023-05-10T11:53:23.700Z,96261.19
2023-05-10T11:54:27.244Z,96254.50
2023-05-10T11:55:32.488Z,96254.50
2023-05-10T11:56:34.913Z,96258.50
2023-05-10T11:57:39.469Z,96268.38
2023-05-10T11:58:42.886Z,96251.56
2023-05-10T11:59:45.401Z,96259.84
2023-05-10T12:00:49.302Z,96259.84
2023-05-10T12:01:52.646Z,96252.06
2023-05-10T12:02:55.116Z,96247.81
2023-05-10T12:04:01.645Z,96260.66
2023-05-10T12:05:05.919Z,96247.28
2023-05-10T12:06:09.960Z,96257.69
2023-05-10T12:07:12.458Z,96258.78
2023-05-10T12:08:22.266Z,96249.69
2023-05-10T12:09:39.706Z,96247.28
2023-05-10T12:10:46.356Z,96247.53
2023-05-10T12:11:48.765Z,96259.03
2023-05-10T12:12:54.617Z,96249.16
2023-05-10T12:13:57.782Z,96244.91
2023-05-10T12:15:01.234Z,96248.09
2023-05-10T12:16:15.909Z,96243.28
2023-05-10T12:17:18.787Z,96243.84
2023-05-10T12:18:27.959Z,96248.09
2023-05-10T12:19:42.429Z,96244.13
2023-05-10T12:20:49.768Z,96243.31
2023-05-10T12:22:04.377Z,96243.84
2023-05-10T12:23:25.546Z,96248.13
2023-05-10T12:25:19.780Z,96240.63
2023-05-10T12:26:30.156Z,96240.13
2023-05-10T12:27:35.185Z,96237.44
2023-05-10T12:28:40.584Z,96237.97
2023-05-10T12:29:46.128Z,96234.78
2023-05-10T12:30:51.745Z,96232.09
2023-05-10T12:31:56.816Z,96236.91
2023-05-10T12:33:05.098Z,96242.78
2023-05-10T12:34:13.047Z,96241.72
2023-05-10T12:35:17.484Z,96238.25
2023-05-10T12:36:26.433Z,96240.09
2023-05-10T12:37:29.625Z,96239.34
2023-05-10T12:38:40.547Z,96238.78
2023-05-10T12:39:47.445Z,96235.84
2023-05-10T12:40:52.294Z,96238.50
2023-05-10T12:41:56.028Z,96239.56
2023-05-10T12:42:59.439Z,96237.47
2023-05-10T12:44:02.615Z,96236.41
2023-05-10T12:45:06.604Z,96232.91
2023-05-10T12:46:10.052Z,96237.47
2023-05-10T12:47:13.391Z,96240.66
2023-05-10T12:48:16.661Z,96227.31
2023-05-10T12:49:20.728Z,96232.13
2023-05-10T12:50:25.365Z,96223.03
2023-05-10T12:51:28.902Z,96229.44
2023-05-10T12:52:34.193Z,96223.03
2023-05-10T12:53:37.839Z,96229.44
2023-05-10T12:54:40.389Z,96229.44
2023-05-10T12:55:45.263Z,96230.25
2023-05-10T12:56:47.675Z,96218.75
2023-05-10T12:57:51.014Z,96224.09
2023-05-10T12:58:53.486Z,96215.56
2023-05-10T12:59:58.311Z,96218.47
2023-05-10T13:01:02.145Z,96217.69
2023-05-10T13:02:04.761Z,96215.00
2023-05-10T13:03:08.113Z,96215.28
2023-05-10T13:04:10.521Z,96213.69
2023-05-10T13:05:14.667Z,96218.22
2023-05-10T13:06:17.062Z,96216.34
2023-05-10T13:07:21.198Z,96210.75
2023-05-10T13:08:23.941Z,96214.47
2023-05-10T13:09:30.542Z,96209.13
2023-05-10T13:10:34.139Z,96222.50
2023-05-10T13:11:37.987Z,96210.75
2023-05-10T13:12:41.480Z,96213.13
2023-05-10T13:13:44.783Z,96215.56
2023-05-10T13:14:48.188Z,96215.84
2023-05-10T13:15:50.737Z,96215.28
2023-05-10T13:16:54.163Z,96221.44
2023-05-10T13:17:57.883Z,96215.28
2023-05-10T13:19:00.604Z,96215.53
2023-05-10T13:20:04.505Z,96209.69
2023-05-10T13:21:07.135Z,96207.25
2023-05-10T13:22:10.574Z,96211.28
2023-05-10T13:23:13.963Z,96213.13
2023-05-10T13:24:16.360Z,96204.06
2023-05-10T13:25:20.358Z,96208.59
2023-05-10T13:26:22.841Z,96203.78
2023-05-10T13:27:27.478Z,96208.34
2023-05-10T13:28:31.315Z,96207.28
2023-05-10T13:29:34.622Z,96198.44
2023-05-10T13:30:37.950Z,96202.75
2023-05-10T13:31:41.563Z,96196.84
2023-05-10T13:32:45.037Z,96194.44
2023-05-10T13:33:47.479Z,96201.41
2023-05-10T13:34:50.858Z,96200.31
2023-05-10T13:35:55.104Z,96195.25
2023-05-10T13:37:01.876Z,96201.16
2023-05-10T13:38:04.284Z,96190.97
2023-05-10T13:39:07.742Z,96196.31
2023-05-10T13:40:11.507Z,96200.34
2023-05-10T13:41:13.815Z,96190.44
2023-05-10T13:42:17.671Z,96187.25
2023-05-10T13:43:21.614Z,96188.84
2023-05-10T13:44:25.271Z,96180.81
2023-05-10T13:45:28.227Z,96177.63
2023-05-10T13:46:32.063Z,96190.44
2023-05-10T13:47:34.594Z,96180.81
2023-05-10T13:48:39.159Z,96176.53
2023-05-10T13:49:41.719Z,96180.00
2023-05-10T13:50:46.084Z,96181.34
2023-05-10T13:51:48.542Z,96170.13
2023-05-10T13:52:51.942Z,96184.56
2023-05-10T13:53:54.689Z,96175.19
2023-05-10T13:54:58.353Z,96177.63
2023-05-10T13:56:00.873Z,96172.28
2023-05-10T13:57:04.255Z,96173.34
2023-05-10T13:58:06.774Z,96169.09
2023-05-10T13:59:11.535Z,96177.88
2023-05-10T14:00:14.906Z,96180.53
2023-05-10T14:01:22.940Z,96179.75
2023-05-10T14:02:25.929Z,96174.44
2023-05-10T14:03:29.415Z,96172.28
2023-05-10T14:04:32.683Z,96171.22
2023-05-10T14:05:36.139Z,96166.94
2023-05-10T14:06:40.245Z,96171.75
2023-05-10T14:07:42.622Z,96172.00
2023-05-10T14:08:46.687Z,96172.28
2023-05-10T14:09:49.195Z,96169.31
2023-05-10T14:10:53.996Z,96166.91
2023-05-10T14:11:57.466Z,96166.91
2023-05-10T14:13:00.248Z,96153.56
2023-05-10T14:14:03.689Z,96164.78
2023-05-10T14:15:11.527Z,96146.09
2023-05-10T14:16:15.971Z,96151.16
2023-05-10T14:17:19.476Z,96151.97
2023-05-10T14:18:22.297Z,96147.69
2023-05-10T14:19:28.168Z,96148.75
2023-05-10T14:20:30.761Z,96150.38
2023-05-10T14:21:35.336Z,96148.22
2023-05-10T14:22:37.845Z,96150.09
2023-05-10T14:23:41.598Z,96149.56
2023-05-10T14:24:47.737Z,96149.81
2023-05-10T14:25:51.292Z,96150.88
2023-05-10T14:26:55.046Z,96148.75
2023-05-10T14:27:58.677Z,96153.03
2023-05-10T14:29:02.299Z,96143.94
2023-05-10T14:30:05.614Z,96150.34
2023-05-10T14:31:10.983Z,96156.22
2023-05-10T14:32:13.435Z,96150.63
2023-05-10T14:33:17.749Z,96147.66
2023-05-10T14:34:21.108Z,96147.16
2023-05-10T14:35:23.794Z,96143.94
2023-05-10T14:36:27.485Z,96145.53
2023-05-10T14:37:29.907Z,96143.94
2023-05-10T14:38:33.874Z,96140.72
2023-05-10T14:39:37.790Z,96147.69
2023-05-10T14:40:40.226Z,96141.25
2023-05-10T14:41:45.606Z,96147.41
2023-05-10T14:42:48.095Z,96137.50
2023-05-10T14:43:52.460Z,96135.91
2023-05-10T14:44:55.165Z,96131.63
2023-05-10T14:45:58.796Z,96133.50
2023-05-10T14:47:03.580Z,96133.22
2023-05-10T14:48:06.381Z,96141.25
2023-05-10T14:49:09.994Z,96139.38
2023-05-10T14:50:21.506Z,96139.38
2023-05-10T14:51:35.664Z,96142.03
2023-05-10T14:52:38.036Z,96138.03
2023-05-10T14:53:41.517Z,96138.59
2023-05-10T14:54:45.043Z,96135.41
2023-05-10T14:55:47.778Z,96127.91
2023-05-10T14:56:51.629Z,96136.72
2023-05-10T14:57:54.397Z,96131.13
2023-05-10T14:58:58.256Z,96130.06
2023-05-10T15:00:01.260Z,96129.25
2023-05-10T15:01:07.231Z,96132.44
2023-05-10T15:02:11.467Z,96135.38
2023-05-10T15:03:15.507Z,96132.19
2023-05-10T15:04:18.517Z,96128.16
2023-05-10T15:05:22.310Z,96121.75
2023-05-10T15:06:32.526Z,96127.34
2023-05-10T15:07:35.895Z,96127.63
2023-05-10T15:08:39.411Z,96127.59
2023-05-10T15:09:42.587Z,96129.47
2023-05-10T15:10:46.009Z,96128.66
2023-05-10T15:11:49.495Z,96128.38
2023-05-10T15:12:51.910Z,96130.19
2023-05-10T15:13:55.486Z,96137.94
2023-05-10T15:14:57.971Z,96135.78
2023-05-10T15:16:01.567Z,96131.75
2023-05-10T15:17:07.219Z,96135.69
2023-05-10T15:18:11.487Z,96133.25
2023-05-10T15:19:14.829Z,96136.72
2023-05-10T15:20:18.972Z,96136.69
2023-05-10T15:21:21.368Z,96135.34
2023-05-10T15:22:25.063Z,96138.53
2023-05-10T15:23:28.439Z,96137.16
2023-05-10T15:24:31.017Z,96139.28
2023-05-10T15:25:36.550Z,96133.44
2023-05-10T15:26:39.880Z,96133.66
2023-05-10T15:27:44.682Z,96126.97
2023-05-10T15:28:48.231Z,96129.91
2023-05-10T15:29:50.843Z,96131.22
2023-05-10T15:30:57.572Z,96131.97
2023-05-10T15:31:59.951Z,96142.69
2023-05-10T15:33:03.430Z,96135.72
2023-05-10T15:34:07.351Z,96136.53
2023-05-10T15:35:11.719Z,96140.84
2023-05-10T15:36:15.217Z,96134.44
2023-05-10T15:37:17.739Z,96147.28
2023-05-10T15:38:21.022Z,96143.84
2023-05-10T15:39:23.677Z,96145.72
2023-05-10T15:40:27.085Z,96143.84
2023-05-10T15:41:30.623Z,96146.81
2023-05-10T15:42:33.071Z,96146.81
2023-05-10T15:43:36.717Z,96145.22
2023-05-10T15:44:39.553Z,96144.66
2023-05-10T15:45:42.961Z,96149.22
2023-05-10T15:46:46.136Z,96155.66
2023-05-10T15:47:49.486Z,96156.44
2023-05-10T15:48:51.819Z,96148.41
2023-05-10T15:49:56.633Z,96156.44
2023-05-10T15:50:59.032Z,96154.84
2023-05-10T15:52:02.460Z,96146.00
2023-05-10T15:53:04.913Z,96146.81
2023-05-10T15:54:08.774Z,96145.75
2023-05-10T15:55:13.455Z,96151.09
2023-05-10T15:56:15.913Z,96138.78
2023-05-10T15:57:19.278Z,96154.31
2023-05-10T15:58:22.647Z,96146.84
2023-05-10T15:59:25.005Z,96142.81
2023-05-10T16:00:29.034Z,96148.47
2023-05-10T16:01:33.304Z,96147.66
2023-05-10T16:02:35.976Z,96142.06
2023-05-10T16:03:39.718Z,96141.25
2023-05-10T16:04:44.705Z,96149.03
2023-05-10T16:05:48.591Z,96152.81
2023-05-10T16:06:51.897Z,96147.19
2023-05-10T16:07:55.156Z,96149.06
2023-05-10T16:08:58.810Z,96146.41
2023-05-10T16:10:04.147Z,96144.78
2023-05-10T16:11:09.202Z,96150.13
2023-05-10T16:12:11.602Z,96150.13
2023-05-10T16:13:16.010Z,96154.97
2023-05-10T16:14:18.345Z,96160.59
2023-05-10T16:15:22.009Z,96160.59
2023-05-10T16:16:25.999Z,96162.44
2023-05-10T16:17:28.730Z,96161.94
2023-05-10T16:18:32.834Z,96152.31
2023-05-10T16:19:35.277Z,96152.34
2023-05-10T16:20:38.583Z,96157.69
2023-05-10T16:21:42.391Z,96157.47
2023-05-10T16:22:45.760Z,96158.28
2023-05-10T16:23:51.502Z,96164.41
2023-05-10T16:24:54.035Z,96164.44
2023-05-10T16:25:57.421Z,96164.19
2023-05-10T16:27:00.009Z,96157.78
2023-05-10T16:28:03.559Z,96162.06
2023-05-10T16:29:06.470Z,96157.25
2023-05-10T16:30:10.793Z,96158.91
2023-05-10T16:31:14.229Z,96152.47
2023-05-10T16:32:17.113Z,96157.28
2023-05-10T16:33:20.830Z,96159.44
2023-05-10T16:34:25.482Z,96156.25
2023-05-10T16:35:30.027Z,96156.25
2023-05-10T16:36:33.944Z,96156.78
2023-05-10T16:37:37.744Z,96156.22
2023-05-10T16:38:41.745Z,96151.94
2023-05-10T16:39:44.541Z,96150.38
2023-05-10T16:40:47.868Z,96149.53
2023-05-10T16:41:50.209Z,96143.66
2023-05-10T16:42:53.483Z,96148.19
2023-05-10T16:43:57.684Z,96151.16
2023-05-10T16:45:07.965Z,96152.47
2023-05-10T16:46:12.338Z,96156.25
2023-05-10T16:47:14.875Z,96149.28
2023-05-10T16:48:18.211Z,96152.75
2023-05-10T16:49:20.735Z,96153.81
2023-05-10T16:50:24.709Z,96154.09
2023-05-10T16:51:27.184Z,96163.69
2023-05-10T16:52:30.597Z,96158.34
2023-05-10T16:53:34.389Z,96164.25
2023-05-10T16:54:37.760Z,96171.47
2023-05-10T16:55:41.370Z,96169.84
2023-05-10T16:56:44.672Z,96178.69
2023-05-10T16:57:47.244Z,96174.41
2023-05-10T16:58:50.924Z,96168.00
2023-05-10T16:59:53.589Z,96169.84
2023-05-10T17:00:57.521Z,96180.28
2023-05-10T17:02:00.005Z,96169.59
2023-05-10T17:03:03.591Z,96166.38
2023-05-10T17:04:06.296Z,96171.44
2023-05-10T17:05:09.949Z,96174.38
2023-05-10T17:06:12.595Z,96183.50
2023-05-10T17:07:19.054Z,96172.81
2023-05-10T17:08:23.394Z,96174.13
2023-05-10T17:09:27.768Z,96174.94
2023-05-10T17:10:31.198Z,96176.56
2023-05-10T17:11:33.839Z,96176.28
2023-05-10T17:12:37.393Z,96176.00
2023-05-10T17:13:40.731Z,96171.75
2023-05-10T17:14:43.697Z,96166.91
2023-05-10T17:15:48.430Z,96166.66
2023-05-10T17:16:53.370Z,96170.66
2023-05-10T17:17:56.620Z,96167.97
2023-05-10T17:19:00.156Z,96166.38
2023-05-10T17:20:04.674Z,96166.91
2023-05-10T17:21:07.206Z,96171.97
2023-05-10T17:22:10.783Z,96172.78
2023-05-10T17:23:13.319Z,96174.41
2023-05-10T17:24:16.927Z,96173.31
2023-05-10T17:25:20.923Z,96179.47
2023-05-10T17:26:24.314Z,96177.06
2023-05-10T17:27:27.944Z,96178.13
2023-05-10T17:28:31.201Z,96183.19
2023-05-10T17:29:33.578Z,96174.09
2023-05-10T17:30:36.984Z,96173.84
2023-05-10T17:31:39.410Z,96181.06
2023-05-10T17:32:42.836Z,96180.25
2023-05-10T17:33:45.393Z,96174.41
2023-05-10T17:34:48.785Z,96180.81
2023-05-10T17:35:52.196Z,96191.50
2023-05-10T17:36:54.694Z,96186.16
2023-05-10T17:37:58.426Z,96179.19
2023-05-10T17:39:01.083Z,96187.22
2023-05-10T17:40:05.985Z,96182.97
2023-05-10T17:41:09.696Z,96193.91
2023-05-10T17:42:14.945Z,96191.25
2023-05-10T17:43:18.262Z,96201.13
2023-05-10T17:44:20.654Z,96195.78
2023-05-10T17:45:29.639Z,96197.94
2023-05-10T17:46:32.444Z,96195.50
2023-05-10T17:47:35.824Z,96194.72
2023-05-10T17:48:39.387Z,96198.47
2023-05-10T17:49:42.674Z,96206.50
2023-05-10T17:50:45.364Z,96202.22
2023-05-10T17:51:49.175Z,96202.22